sensor_id;sensor_type;location;lat;lon;timestamp;P1;durP1;ratioP1;P2;durP2;ratioP2
68938;SDS011;59064;45.294;11.816;2023-05-01T00:00:04;15.20;;;10.40;;
68938;SDS011;59064;45.294;11.816;2023-05-01T00:02:30;12.70;;;9.20;;
68938;SDS011;59064;45.294;11.816;2023-05-01T00:04:56;11.80;;;9.20;;
68938;SDS011;59064;45.294;11.816;2023-05-01T00:07:22;10.90;;;8.50;;
68938;SDS011;59064;45.294;11.816;2023-05-01T00:09:49;11.60;;;8.70;;
68938;SDS011;59064;45.294;11.816;2023-05-01T00:12:15;10.80;;;8.80;;
68938;SDS011;59064;45.294;11.816;2023-05-01T00:14:41;12.00;;;9.10;;
68938;SDS011;59064;45.294;11.816;2023-05-01T00:17:07;11.20;;;7.80;;
68938;SDS011;59064;45.294;11.816;2023-05-01T00:19:32;11.20;;;7.80;;
68938;SDS011;59064;45.294;11.816;2023-05-01T00:21:58;10.30;;;8.60;;
68938;SDS011;59064;45.294;11.816;2023-05-01T00:24:23;11.90;;;9.10;;
68938;SDS011;59064;45.294;11.816;2023-05-01T00:26:49;11.70;;;8.60;;
68938;SDS011;59064;45.294;11.816;2023-05-01T00:29:14;11.00;;;8.70;;
68938;SDS011;59064;45.294;11.816;2023-05-01T00:31:41;11.20;;;9.00;;
68938;SDS011;59064;45.294;11.816;2023-05-01T00:34:07;12.30;;;8.60;;
68938;SDS011;59064;45.294;11.816;2023-05-01T00:36:34;12.20;;;9.70;;
68938;SDS011;59064;45.294;11.816;2023-05-01T00:39:00;11.90;;;9.00;;
68938;SDS011;59064;45.294;11.816;2023-05-01T00:41:26;12.00;;;9.20;;
68938;SDS011;59064;45.294;11.816;2023-05-01T00:43:51;12.20;;;8.80;;
68938;SDS011;59064;45.294;11.816;2023-05-01T00:46:17;11.90;;;9.00;;
68938;SDS011;59064;45.294;11.816;2023-05-01T00:48:43;12.90;;;8.70;;
68938;SDS011;59064;45.294;11.816;2023-05-01T00:51:09;12.20;;;9.60;;
68938;SDS011;59064;45.294;11.816;2023-05-01T00:53:36;13.00;;;9.60;;
68938;SDS011;59064;45.294;11.816;2023-05-01T00:56:05;12.70;;;8.70;;
68938;SDS011;59064;45.294;11.816;2023-05-01T00:58:32;10.60;;;8.40;;
68938;SDS011;59064;45.294;11.816;2023-05-01T01:00:58;10.50;;;8.20;;
68938;SDS011;59064;45.294;11.816;2023-05-01T01:03:24;11.40;;;8.00;;
68938;SDS011;59064;45.294;11.816;2023-05-01T01:05:50;11.60;;;7.50;;
68938;SDS011;59064;45.294;11.816;2023-05-01T01:08:28;10.10;;;7.30;;
68938;SDS011;59064;45.294;11.816;2023-05-01T01:16:51;10.70;;;6.20;;
68938;SDS011;59064;45.294;11.816;2023-05-01T01:22:12;8.70;;;6.70;;
68938;SDS011;59064;45.294;11.816;2023-05-01T01:36:20;16.20;;;6.30;;
68938;SDS011;59064;45.294;11.816;2023-05-01T01:41:32;9.00;;;6.30;;
68938;SDS011;59064;45.294;11.816;2023-05-01T01:44:08;10.40;;;7.70;;
68938;SDS011;59064;45.294;11.816;2023-05-01T01:46:37;11.30;;;6.50;;
68938;SDS011;59064;45.294;11.816;2023-05-01T01:49:05;10.60;;;6.60;;
68938;SDS011;59064;45.294;11.816;2023-05-01T01:51:33;9.50;;;6.50;;
68938;SDS011;59064;45.294;11.816;2023-05-01T01:54:01;8.30;;;6.40;;
68938;SDS011;59064;45.294;11.816;2023-05-01T01:56:29;9.70;;;6.00;;
68938;SDS011;59064;45.294;11.816;2023-05-01T01:58:57;8.90;;;5.60;;
68938;SDS011;59064;45.294;11.816;2023-05-01T02:01:25;7.60;;;5.60;;
68938;SDS011;59064;45.294;11.816;2023-05-01T02:03:53;8.30;;;5.00;;
68938;SDS011;59064;45.294;11.816;2023-05-01T02:06:19;8.70;;;5.70;;
68938;SDS011;59064;45.294;11.816;2023-05-01T02:08:47;7.60;;;5.10;;
68938;SDS011;59064;45.294;11.816;2023-05-01T02:11:14;7.30;;;4.80;;
68938;SDS011;59064;45.294;11.816;2023-05-01T02:13:42;8.90;;;5.00;;
68938;SDS011;59064;45.294;11.816;2023-05-01T02:16:09;9.60;;;5.40;;
68938;SDS011;59064;45.294;11.816;2023-05-01T02:18:37;10.00;;;5.60;;
68938;SDS011;59064;45.294;11.816;2023-05-01T02:21:04;8.80;;;5.20;;
68938;SDS011;59064;45.294;11.816;2023-05-01T02:23:31;9.80;;;6.00;;
68938;SDS011;59064;45.294;11.816;2023-05-01T02:25:57;7.80;;;5.30;;
68938;SDS011;59064;45.294;11.816;2023-05-01T02:28:27;7.40;;;5.20;;
68938;SDS011;59064;45.294;11.816;2023-05-01T02:30:54;9.10;;;5.90;;
68938;SDS011;59064;45.294;11.816;2023-05-01T02:33:21;7.70;;;5.10;;
68938;SDS011;59064;45.294;11.816;2023-05-01T02:35:47;8.40;;;4.90;;
68938;SDS011;59064;45.294;11.816;2023-05-01T02:38:13;7.90;;;5.20;;
68938;SDS011;59064;45.294;11.816;2023-05-01T02:40:40;7.20;;;5.00;;
68938;SDS011;59064;45.294;11.816;2023-05-01T02:43:11;7.30;;;5.10;;
68938;SDS011;59064;45.294;11.816;2023-05-01T02:45:40;7.20;;;5.00;;
68938;SDS011;59064;45.294;11.816;2023-05-01T02:48:07;7.30;;;4.90;;
68938;SDS011;59064;45.294;11.816;2023-05-01T02:50:35;8.40;;;5.40;;
68938;SDS011;59064;45.294;11.816;2023-05-01T02:53:04;9.20;;;5.20;;
68938;SDS011;59064;45.294;11.816;2023-05-01T02:55:31;7.50;;;5.00;;
68938;SDS011;59064;45.294;11.816;2023-05-01T02:57:57;8.90;;;5.90;;
68938;SDS011;59064;45.294;11.816;2023-05-01T03:00:24;7.20;;;5.40;;
68938;SDS011;59064;45.294;11.816;2023-05-01T03:02:50;7.80;;;5.70;;
68938;SDS011;59064;45.294;11.816;2023-05-01T03:05:16;6.80;;;4.80;;
68938;SDS011;59064;45.294;11.816;2023-05-01T03:07:41;8.50;;;5.50;;
68938;SDS011;59064;45.294;11.816;2023-05-01T03:10:07;7.50;;;5.30;;
68938;SDS011;59064;45.294;11.816;2023-05-01T03:12:33;8.40;;;5.60;;
68938;SDS011;59064;45.294;11.816;2023-05-01T03:14:58;8.80;;;5.40;;
68938;SDS011;59064;45.294;11.816;2023-05-01T03:17:24;9.60;;;5.30;;
68938;SDS011;59064;45.294;11.816;2023-05-01T03:19:50;8.20;;;5.20;;
68938;SDS011;59064;45.294;11.816;2023-05-01T03:22:16;9.00;;;5.60;;
68938;SDS011;59064;45.294;11.816;2023-05-01T03:24:41;8.50;;;5.30;;
68938;SDS011;59064;45.294;11.816;2023-05-01T03:27:07;8.30;;;5.20;;
68938;SDS011;59064;45.294;11.816;2023-05-01T03:29:33;7.60;;;4.90;;
68938;SDS011;59064;45.294;11.816;2023-05-01T03:31:59;7.50;;;5.30;;
68938;SDS011;59064;45.294;11.816;2023-05-01T03:34:25;9.10;;;5.10;;
68938;SDS011;59064;45.294;11.816;2023-05-01T03:36:51;7.70;;;4.60;;
68938;SDS011;59064;45.294;11.816;2023-05-01T03:39:18;8.90;;;4.70;;
68938;SDS011;59064;45.294;11.816;2023-05-01T03:41:44;6.80;;;4.70;;
68938;SDS011;59064;45.294;11.816;2023-05-01T03:44:09;7.70;;;4.80;;
68938;SDS011;59064;45.294;11.816;2023-05-01T03:46:35;9.40;;;4.90;;
68938;SDS011;59064;45.294;11.816;2023-05-01T03:49:00;7.30;;;4.50;;
68938;SDS011;59064;45.294;11.816;2023-05-01T03:51:26;7.90;;;4.30;;
68938;SDS011;59064;45.294;11.816;2023-05-01T03:53:51;7.40;;;4.30;;
68938;SDS011;59064;45.294;11.816;2023-05-01T03:56:17;7.60;;;4.30;;
68938;SDS011;59064;45.294;11.816;2023-05-01T03:58:42;8.10;;;4.40;;
68938;SDS011;59064;45.294;11.816;2023-05-01T04:01:08;6.90;;;4.40;;
68938;SDS011;59064;45.294;11.816;2023-05-01T04:03:34;7.90;;;4.70;;
68938;SDS011;59064;45.294;11.816;2023-05-01T04:06:00;7.20;;;5.00;;
68938;SDS011;59064;45.294;11.816;2023-05-01T04:08:25;8.50;;;4.50;;
68938;SDS011;59064;45.294;11.816;2023-05-01T04:10:51;6.80;;;4.40;;
68938;SDS011;59064;45.294;11.816;2023-05-01T04:13:16;9.30;;;4.00;;
68938;SDS011;59064;45.294;11.816;2023-05-01T04:15:45;5.60;;;2.90;;
68938;SDS011;59064;45.294;11.816;2023-05-01T04:18:10;5.20;;;2.90;;
68938;SDS011;59064;45.294;11.816;2023-05-01T04:20:36;6.10;;;3.80;;
68938;SDS011;59064;45.294;11.816;2023-05-01T04:23:02;7.20;;;3.90;;
68938;SDS011;59064;45.294;11.816;2023-05-01T04:25:28;6.40;;;4.00;;
68938;SDS011;59064;45.294;11.816;2023-05-01T04:27:53;6.40;;;3.90;;
68938;SDS011;59064;45.294;11.816;2023-05-01T04:30:19;8.10;;;4.60;;
68938;SDS011;59064;45.294;11.816;2023-05-01T04:32:44;5.90;;;3.50;;
68938;SDS011;59064;45.294;11.816;2023-05-01T04:35:10;5.40;;;3.20;;
68938;SDS011;59064;45.294;11.816;2023-05-01T04:37:36;6.50;;;3.10;;
68938;SDS011;59064;45.294;11.816;2023-05-01T04:40:01;7.30;;;4.50;;
68938;SDS011;59064;45.294;11.816;2023-05-01T04:42:31;7.50;;;4.00;;
68938;SDS011;59064;45.294;11.816;2023-05-01T04:44:57;7.80;;;3.30;;
68938;SDS011;59064;45.294;11.816;2023-05-01T04:47:25;6.10;;;3.20;;
68938;SDS011;59064;45.294;11.816;2023-05-01T04:49:52;9.30;;;4.00;;
68938;SDS011;59064;45.294;11.816;2023-05-01T04:52:17;8.60;;;3.70;;
68938;SDS011;59064;45.294;11.816;2023-05-01T04:54:43;4.50;;;2.80;;
68938;SDS011;59064;45.294;11.816;2023-05-01T04:57:08;7.20;;;4.40;;
68938;SDS011;59064;45.294;11.816;2023-05-01T04:59:34;5.60;;;3.20;;
68938;SDS011;59064;45.294;11.816;2023-05-01T05:02:01;7.30;;;3.30;;
68938;SDS011;59064;45.294;11.816;2023-05-01T05:04:26;6.80;;;4.50;;
68938;SDS011;59064;45.294;11.816;2023-05-01T05:06:52;6.70;;;4.70;;
68938;SDS011;59064;45.294;11.816;2023-05-01T05:09:17;7.80;;;4.40;;
68938;SDS011;59064;45.294;11.816;2023-05-01T05:11:43;7.60;;;4.30;;
68938;SDS011;59064;45.294;11.816;2023-05-01T05:14:09;7.00;;;4.60;;
68938;SDS011;59064;45.294;11.816;2023-05-01T05:16:34;7.90;;;4.30;;
68938;SDS011;59064;45.294;11.816;2023-05-01T05:19:00;9.20;;;4.70;;
68938;SDS011;59064;45.294;11.816;2023-05-01T05:21:25;7.10;;;4.30;;
68938;SDS011;59064;45.294;11.816;2023-05-01T05:23:51;7.20;;;4.10;;
68938;SDS011;59064;45.294;11.816;2023-05-01T05:26:17;6.50;;;4.60;;
68938;SDS011;59064;45.294;11.816;2023-05-01T05:28:42;8.10;;;4.50;;
68938;SDS011;59064;45.294;11.816;2023-05-01T05:31:08;7.00;;;4.60;;
68938;SDS011;59064;45.294;11.816;2023-05-01T05:33:33;6.60;;;4.30;;
68938;SDS011;59064;45.294;11.816;2023-05-01T05:35:59;6.40;;;3.50;;
68938;SDS011;59064;45.294;11.816;2023-05-01T05:38:24;6.50;;;3.10;;
68938;SDS011;59064;45.294;11.816;2023-05-01T05:40:50;7.30;;;3.60;;
68938;SDS011;59064;45.294;11.816;2023-05-01T05:43:18;7.70;;;4.90;;
68938;SDS011;59064;45.294;11.816;2023-05-01T05:45:43;6.70;;;4.70;;
68938;SDS011;59064;45.294;11.816;2023-05-01T05:48:09;6.40;;;2.90;;
68938;SDS011;59064;45.294;11.816;2023-05-01T05:50:35;6.40;;;3.80;;
68938;SDS011;59064;45.294;11.816;2023-05-01T05:53:01;5.90;;;2.90;;
68938;SDS011;59064;45.294;11.816;2023-05-01T05:55:26;5.70;;;3.30;;
68938;SDS011;59064;45.294;11.816;2023-05-01T05:57:52;5.90;;;4.00;;
68938;SDS011;59064;45.294;11.816;2023-05-01T06:00:17;8.70;;;4.40;;
68938;SDS011;59064;45.294;11.816;2023-05-01T06:02:43;6.20;;;4.00;;
68938;SDS011;59064;45.294;11.816;2023-05-01T06:05:09;7.40;;;4.40;;
68938;SDS011;59064;45.294;11.816;2023-05-01T06:07:35;6.50;;;4.20;;
68938;SDS011;59064;45.294;11.816;2023-05-01T06:10:02;6.70;;;4.40;;
68938;SDS011;59064;45.294;11.816;2023-05-01T06:12:31;7.10;;;3.40;;
68938;SDS011;59064;45.294;11.816;2023-05-01T06:14:57;7.10;;;4.30;;
68938;SDS011;59064;45.294;11.816;2023-05-01T06:17:23;6.00;;;3.60;;
68938;SDS011;59064;45.294;11.816;2023-05-01T06:19:49;6.00;;;3.70;;
68938;SDS011;59064;45.294;11.816;2023-05-01T06:22:19;6.00;;;3.20;;
68938;SDS011;59064;45.294;11.816;2023-05-01T06:24:48;6.20;;;3.90;;
68938;SDS011;59064;45.294;11.816;2023-05-01T06:27:13;4.50;;;2.90;;
68938;SDS011;59064;45.294;11.816;2023-05-01T06:29:39;4.70;;;2.80;;
68938;SDS011;59064;45.294;11.816;2023-05-01T06:32:05;4.80;;;2.90;;
68938;SDS011;59064;45.294;11.816;2023-05-01T06:34:30;10.00;;;3.10;;
68938;SDS011;59064;45.294;11.816;2023-05-01T06:36:56;5.20;;;3.20;;
68938;SDS011;59064;45.294;11.816;2023-05-01T06:39:21;4.20;;;2.60;;
68938;SDS011;59064;45.294;11.816;2023-05-01T06:41:47;7.00;;;3.40;;
68938;SDS011;59064;45.294;11.816;2023-05-01T06:44:13;5.30;;;3.30;;
68938;SDS011;59064;45.294;11.816;2023-05-01T06:46:39;5.60;;;2.90;;
68938;SDS011;59064;45.294;11.816;2023-05-01T06:49:05;5.10;;;3.20;;
68938;SDS011;59064;45.294;11.816;2023-05-01T06:51:30;6.40;;;4.10;;
68938;SDS011;59064;45.294;11.816;2023-05-01T06:53:56;6.00;;;3.90;;
68938;SDS011;59064;45.294;11.816;2023-05-01T06:56:22;6.10;;;3.60;;
68938;SDS011;59064;45.294;11.816;2023-05-01T06:58:47;5.80;;;3.30;;
68938;SDS011;59064;45.294;11.816;2023-05-01T07:01:13;5.80;;;3.50;;
68938;SDS011;59064;45.294;11.816;2023-05-01T07:03:39;7.20;;;4.20;;
68938;SDS011;59064;45.294;11.816;2023-05-01T07:06:04;5.70;;;2.40;;
68938;SDS011;59064;45.294;11.816;2023-05-01T07:08:30;5.70;;;3.00;;
68938;SDS011;59064;45.294;11.816;2023-05-01T07:10:56;6.50;;;3.60;;
68938;SDS011;59064;45.294;11.816;2023-05-01T07:13:22;5.30;;;3.20;;
68938;SDS011;59064;45.294;11.816;2023-05-01T07:15:48;7.90;;;3.90;;
68938;SDS011;59064;45.294;11.816;2023-05-01T07:18:14;6.50;;;4.00;;
68938;SDS011;59064;45.294;11.816;2023-05-01T07:20:41;5.70;;;3.20;;
68938;SDS011;59064;45.294;11.816;2023-05-01T07:23:07;5.90;;;3.30;;
68938;SDS011;59064;45.294;11.816;2023-05-01T07:25:34;6.60;;;3.30;;
68938;SDS011;59064;45.294;11.816;2023-05-01T07:28:05;6.70;;;4.00;;
68938;SDS011;59064;45.294;11.816;2023-05-01T07:30:32;5.10;;;3.40;;
68938;SDS011;59064;45.294;11.816;2023-05-01T07:33:00;5.30;;;3.10;;
68938;SDS011;59064;45.294;11.816;2023-05-01T07:35:26;6.60;;;3.70;;
68938;SDS011;59064;45.294;11.816;2023-05-01T07:37:51;6.20;;;3.40;;
68938;SDS011;59064;45.294;11.816;2023-05-01T07:40:19;5.50;;;3.00;;
68938;SDS011;59064;45.294;11.816;2023-05-01T07:42:45;5.90;;;4.10;;
68938;SDS011;59064;45.294;11.816;2023-05-01T07:45:10;8.30;;;3.90;;
68938;SDS011;59064;45.294;11.816;2023-05-01T07:47:36;4.70;;;2.60;;
68938;SDS011;59064;45.294;11.816;2023-05-01T07:50:02;6.60;;;3.80;;
68938;SDS011;59064;45.294;11.816;2023-05-01T07:52:28;5.80;;;3.20;;
68938;SDS011;59064;45.294;11.816;2023-05-01T07:54:54;6.20;;;3.50;;
68938;SDS011;59064;45.294;11.816;2023-05-01T07:57:20;6.00;;;3.40;;
68938;SDS011;59064;45.294;11.816;2023-05-01T07:59:47;5.20;;;2.90;;
68938;SDS011;59064;45.294;11.816;2023-05-01T08:02:15;5.30;;;2.90;;
68938;SDS011;59064;45.294;11.816;2023-05-01T08:04:41;7.50;;;3.70;;
68938;SDS011;59064;45.294;11.816;2023-05-01T08:07:07;4.80;;;2.70;;
68938;SDS011;59064;45.294;11.816;2023-05-01T08:09:32;6.20;;;2.90;;
68938;SDS011;59064;45.294;11.816;2023-05-01T08:11:58;7.00;;;3.20;;
68938;SDS011;59064;45.294;11.816;2023-05-01T08:14:24;7.50;;;4.30;;
68938;SDS011;59064;45.294;11.816;2023-05-01T08:16:49;5.40;;;3.60;;
68938;SDS011;59064;45.294;11.816;2023-05-01T08:19:19;4.50;;;2.70;;
68938;SDS011;59064;45.294;11.816;2023-05-01T08:21:45;5.50;;;3.20;;
68938;SDS011;59064;45.294;11.816;2023-05-01T08:24:10;6.20;;;2.60;;
68938;SDS011;59064;45.294;11.816;2023-05-01T08:26:36;6.20;;;3.80;;
68938;SDS011;59064;45.294;11.816;2023-05-01T08:29:02;6.00;;;2.50;;
68938;SDS011;59064;45.294;11.816;2023-05-01T08:31:28;5.00;;;2.60;;
68938;SDS011;59064;45.294;11.816;2023-05-01T08:33:53;6.40;;;2.60;;
68938;SDS011;59064;45.294;11.816;2023-05-01T08:36:19;7.20;;;3.40;;
68938;SDS011;59064;45.294;11.816;2023-05-01T08:38:44;4.90;;;3.10;;
68938;SDS011;59064;45.294;11.816;2023-05-01T08:41:14;6.00;;;3.70;;
68938;SDS011;59064;45.294;11.816;2023-05-01T08:43:41;5.10;;;3.50;;
68938;SDS011;59064;45.294;11.816;2023-05-01T08:46:07;7.60;;;3.40;;
68938;SDS011;59064;45.294;11.816;2023-05-01T08:48:35;7.30;;;3.10;;
68938;SDS011;59064;45.294;11.816;2023-05-01T08:51:01;5.70;;;3.40;;
68938;SDS011;59064;45.294;11.816;2023-05-01T08:53:29;5.70;;;3.40;;
68938;SDS011;59064;45.294;11.816;2023-05-01T08:55:57;5.80;;;3.20;;
68938;SDS011;59064;45.294;11.816;2023-05-01T08:58:24;4.70;;;2.60;;
68938;SDS011;59064;45.294;11.816;2023-05-01T09:00:51;6.50;;;3.00;;
68938;SDS011;59064;45.294;11.816;2023-05-01T09:03:20;4.90;;;2.40;;
68938;SDS011;59064;45.294;11.816;2023-05-01T09:05:46;4.90;;;2.60;;
68938;SDS011;59064;45.294;11.816;2023-05-01T09:08:13;5.10;;;2.90;;
68938;SDS011;59064;45.294;11.816;2023-05-01T09:10:40;4.70;;;2.80;;
68938;SDS011;59064;45.294;11.816;2023-05-01T09:13:09;6.20;;;2.40;;
68938;SDS011;59064;45.294;11.816;2023-05-01T09:15:35;4.50;;;2.50;;
68938;SDS011;59064;45.294;11.816;2023-05-01T09:18:00;4.30;;;2.40;;
68938;SDS011;59064;45.294;11.816;2023-05-01T09:20:27;6.00;;;2.70;;
68938;SDS011;59064;45.294;11.816;2023-05-01T09:22:54;4.70;;;2.20;;
68938;SDS011;59064;45.294;11.816;2023-05-01T09:25:21;5.20;;;3.50;;
68938;SDS011;59064;45.294;11.816;2023-05-01T09:27:47;6.20;;;3.60;;
68938;SDS011;59064;45.294;11.816;2023-05-01T09:30:32;5.50;;;2.90;;
68938;SDS011;59064;45.294;11.816;2023-05-01T09:33:06;5.80;;;3.40;;
68938;SDS011;59064;45.294;11.816;2023-05-01T09:38:19;6.00;;;3.60;;
68938;SDS011;59064;45.294;11.816;2023-05-01T09:40:49;4.70;;;2.70;;
68938;SDS011;59064;45.294;11.816;2023-05-01T09:43:23;6.90;;;3.10;;
68938;SDS011;59064;45.294;11.816;2023-05-01T09:46:03;5.90;;;2.80;;
68938;SDS011;59064;45.294;11.816;2023-05-01T09:48:31;3.90;;;2.70;;
68938;SDS011;59064;45.294;11.816;2023-05-01T09:50:58;5.10;;;3.50;;
68938;SDS011;59064;45.294;11.816;2023-05-01T09:53:36;5.90;;;3.20;;
68938;SDS011;59064;45.294;11.816;2023-05-01T09:56:03;5.00;;;2.80;;
68938;SDS011;59064;45.294;11.816;2023-05-01T09:58:29;5.50;;;2.70;;
68938;SDS011;59064;45.294;11.816;2023-05-01T10:00:55;6.50;;;3.40;;
68938;SDS011;59064;45.294;11.816;2023-05-01T10:03:20;7.70;;;3.20;;
68938;SDS011;59064;45.294;11.816;2023-05-01T10:05:46;5.80;;;3.20;;
68938;SDS011;59064;45.294;11.816;2023-05-01T10:08:12;5.10;;;2.80;;
68938;SDS011;59064;45.294;11.816;2023-05-01T10:10:39;4.60;;;2.10;;
68938;SDS011;59064;45.294;11.816;2023-05-01T10:13:12;4.10;;;2.40;;
68938;SDS011;59064;45.294;11.816;2023-05-01T10:15:39;4.80;;;2.80;;
68938;SDS011;59064;45.294;11.816;2023-05-01T10:18:04;4.90;;;2.70;;
68938;SDS011;59064;45.294;11.816;2023-05-01T10:20:34;5.10;;;2.30;;
68938;SDS011;59064;45.294;11.816;2023-05-01T10:23:00;4.00;;;2.30;;
68938;SDS011;59064;45.294;11.816;2023-05-01T10:25:27;4.80;;;2.80;;
68938;SDS011;59064;45.294;11.816;2023-05-01T10:27:54;4.50;;;2.20;;
68938;SDS011;59064;45.294;11.816;2023-05-01T10:30:21;5.00;;;2.70;;
68938;SDS011;59064;45.294;11.816;2023-05-01T10:32:47;5.90;;;3.00;;
68938;SDS011;59064;45.294;11.816;2023-05-01T10:35:23;4.70;;;2.20;;
68938;SDS011;59064;45.294;11.816;2023-05-01T10:38:00;3.90;;;2.10;;
68938;SDS011;59064;45.294;11.816;2023-05-01T10:45:51;5.50;;;2.40;;
68938;SDS011;59064;45.294;11.816;2023-05-01T10:51:19;4.30;;;2.40;;
68938;SDS011;59064;45.294;11.816;2023-05-01T10:54:20;3.60;;;2.00;;
68938;SDS011;59064;45.294;11.816;2023-05-01T10:59:03;4.90;;;2.60;;
68938;SDS011;59064;45.294;11.816;2023-05-01T11:01:31;4.00;;;2.10;;
68938;SDS011;59064;45.294;11.816;2023-05-01T11:03:57;6.80;;;3.40;;
68938;SDS011;59064;45.294;11.816;2023-05-01T11:06:24;7.70;;;3.80;;
68938;SDS011;59064;45.294;11.816;2023-05-01T11:08:50;4.60;;;2.80;;
68938;SDS011;59064;45.294;11.816;2023-05-01T11:13:56;5.50;;;2.50;;
68938;SDS011;59064;45.294;11.816;2023-05-01T11:21:47;4.10;;;2.40;;
68938;SDS011;59064;45.294;11.816;2023-05-01T11:24:14;5.00;;;2.90;;
68938;SDS011;59064;45.294;11.816;2023-05-01T11:26:42;5.30;;;2.90;;
68938;SDS011;59064;45.294;11.816;2023-05-01T11:29:09;4.70;;;2.50;;
68938;SDS011;59064;45.294;11.816;2023-05-01T11:31:36;3.50;;;1.70;;
68938;SDS011;59064;45.294;11.816;2023-05-01T11:34:02;5.40;;;2.20;;
68938;SDS011;59064;45.294;11.816;2023-05-01T11:36:29;5.30;;;2.40;;
68938;SDS011;59064;45.294;11.816;2023-05-01T11:39:13;3.70;;;2.20;;
68938;SDS011;59064;45.294;11.816;2023-05-01T11:41:39;4.80;;;2.10;;
68938;SDS011;59064;45.294;11.816;2023-05-01T11:44:05;4.80;;;2.00;;
68938;SDS011;59064;45.294;11.816;2023-05-01T11:46:31;8.50;;;2.20;;
68938;SDS011;59064;45.294;11.816;2023-05-01T11:49:01;5.00;;;2.40;;
68938;SDS011;59064;45.294;11.816;2023-05-01T11:51:27;4.90;;;2.50;;
68938;SDS011;59064;45.294;11.816;2023-05-01T11:53:57;5.20;;;2.50;;
68938;SDS011;59064;45.294;11.816;2023-05-01T11:56:25;5.50;;;2.90;;
68938;SDS011;59064;45.294;11.816;2023-05-01T11:58:51;4.70;;;2.40;;
68938;SDS011;59064;45.294;11.816;2023-05-01T12:01:17;4.30;;;2.30;;
68938;SDS011;59064;45.294;11.816;2023-05-01T12:03:43;3.50;;;2.00;;
68938;SDS011;59064;45.294;11.816;2023-05-01T12:06:09;4.50;;;1.80;;
68938;SDS011;59064;45.294;11.816;2023-05-01T12:08:40;6.10;;;2.50;;
68938;SDS011;59064;45.294;11.816;2023-05-01T12:11:11;3.70;;;2.20;;
68938;SDS011;59064;45.294;11.816;2023-05-01T12:13:37;4.60;;;1.90;;
68938;SDS011;59064;45.294;11.816;2023-05-01T12:16:04;3.60;;;1.80;;
68938;SDS011;59064;45.294;11.816;2023-05-01T12:18:29;3.90;;;2.40;;
68938;SDS011;59064;45.294;11.816;2023-05-01T12:20:55;4.00;;;2.50;;
68938;SDS011;59064;45.294;11.816;2023-05-01T12:23:34;3.90;;;2.30;;
68938;SDS011;59064;45.294;11.816;2023-05-01T12:26:01;3.70;;;1.80;;
68938;SDS011;59064;45.294;11.816;2023-05-01T12:28:51;4.10;;;1.60;;
68938;SDS011;59064;45.294;11.816;2023-05-01T12:31:24;4.10;;;1.80;;
68938;SDS011;59064;45.294;11.816;2023-05-01T12:33:52;5.50;;;2.20;;
68938;SDS011;59064;45.294;11.816;2023-05-01T12:36:19;6.00;;;2.50;;
68938;SDS011;59064;45.294;11.816;2023-05-01T12:39:08;5.40;;;2.30;;
68938;SDS011;59064;45.294;11.816;2023-05-01T12:41:37;3.90;;;1.70;;
68938;SDS011;59064;45.294;11.816;2023-05-01T12:47:07;4.50;;;1.90;;
68938;SDS011;59064;45.294;11.816;2023-05-01T12:49:34;3.40;;;1.90;;
68938;SDS011;59064;45.294;11.816;2023-05-01T12:52:01;2.90;;;1.50;;
68938;SDS011;59064;45.294;11.816;2023-05-01T12:54:30;3.20;;;1.60;;
68938;SDS011;59064;45.294;11.816;2023-05-01T12:57:04;3.90;;;1.60;;
68938;SDS011;59064;45.294;11.816;2023-05-01T12:59:35;3.20;;;1.40;;
68938;SDS011;59064;45.294;11.816;2023-05-01T13:02:03;3.10;;;1.60;;
68938;SDS011;59064;45.294;11.816;2023-05-01T13:04:32;3.90;;;1.70;;
68938;SDS011;59064;45.294;11.816;2023-05-01T13:06:59;3.50;;;1.70;;
68938;SDS011;59064;45.294;11.816;2023-05-01T13:09:26;3.30;;;1.80;;
68938;SDS011;59064;45.294;11.816;2023-05-01T13:11:57;3.80;;;1.80;;
68938;SDS011;59064;45.294;11.816;2023-05-01T13:14:25;3.40;;;1.70;;
68938;SDS011;59064;45.294;11.816;2023-05-01T13:16:51;5.90;;;2.20;;
68938;SDS011;59064;45.294;11.816;2023-05-01T13:19:24;3.10;;;1.60;;
68938;SDS011;59064;45.294;11.816;2023-05-01T13:21:55;4.10;;;1.80;;
68938;SDS011;59064;45.294;11.816;2023-05-01T13:24:22;4.80;;;2.20;;
68938;SDS011;59064;45.294;11.816;2023-05-01T13:27:04;4.20;;;2.60;;
68938;SDS011;59064;45.294;11.816;2023-05-01T13:29:30;4.40;;;2.20;;
68938;SDS011;59064;45.294;11.816;2023-05-01T13:31:56;4.00;;;1.90;;
68938;SDS011;59064;45.294;11.816;2023-05-01T13:34:32;4.10;;;2.10;;
68938;SDS011;59064;45.294;11.816;2023-05-01T13:36:59;4.60;;;2.10;;
68938;SDS011;59064;45.294;11.816;2023-05-01T13:39:26;5.00;;;2.70;;
68938;SDS011;59064;45.294;11.816;2023-05-01T13:41:52;5.30;;;2.30;;
68938;SDS011;59064;45.294;11.816;2023-05-01T13:44:19;3.50;;;2.00;;
68938;SDS011;59064;45.294;11.816;2023-05-01T13:46:46;3.40;;;1.90;;
68938;SDS011;59064;45.294;11.816;2023-05-01T13:49:12;3.30;;;1.70;;
68938;SDS011;59064;45.294;11.816;2023-05-01T13:51:42;3.50;;;1.80;;
68938;SDS011;59064;45.294;11.816;2023-05-01T13:54:10;2.80;;;1.60;;
68938;SDS011;59064;45.294;11.816;2023-05-01T13:56:37;3.50;;;1.80;;
68938;SDS011;59064;45.294;11.816;2023-05-01T13:59:05;3.70;;;1.90;;
68938;SDS011;59064;45.294;11.816;2023-05-01T14:01:39;3.90;;;2.00;;
68938;SDS011;59064;45.294;11.816;2023-05-01T14:04:16;4.50;;;1.90;;
68938;SDS011;59064;45.294;11.816;2023-05-01T14:06:43;4.20;;;2.10;;
68938;SDS011;59064;45.294;11.816;2023-05-01T14:09:09;3.50;;;1.80;;
68938;SDS011;59064;45.294;11.816;2023-05-01T14:11:45;3.70;;;1.80;;
68938;SDS011;59064;45.294;11.816;2023-05-01T14:14:15;3.20;;;1.80;;
68938;SDS011;59064;45.294;11.816;2023-05-01T14:16:45;3.70;;;1.80;;
68938;SDS011;59064;45.294;11.816;2023-05-01T14:19:13;3.10;;;1.70;;
68938;SDS011;59064;45.294;11.816;2023-05-01T14:21:41;3.10;;;1.70;;
68938;SDS011;59064;45.294;11.816;2023-05-01T14:24:07;4.60;;;2.00;;
68938;SDS011;59064;45.294;11.816;2023-05-01T14:26:33;5.80;;;2.00;;
68938;SDS011;59064;45.294;11.816;2023-05-01T14:29:00;4.40;;;1.70;;
68938;SDS011;59064;45.294;11.816;2023-05-01T14:31:28;5.00;;;2.10;;
68938;SDS011;59064;45.294;11.816;2023-05-01T14:33:58;3.30;;;1.50;;
68938;SDS011;59064;45.294;11.816;2023-05-01T14:36:25;2.60;;;1.50;;
68938;SDS011;59064;45.294;11.816;2023-05-01T14:38:54;4.80;;;2.10;;
68938;SDS011;59064;45.294;11.816;2023-05-01T14:41:21;4.00;;;1.40;;
68938;SDS011;59064;45.294;11.816;2023-05-01T14:43:46;2.80;;;1.40;;
68938;SDS011;59064;45.294;11.816;2023-05-01T14:46:16;3.80;;;1.80;;
68938;SDS011;59064;45.294;11.816;2023-05-01T14:48:55;4.20;;;1.90;;
68938;SDS011;59064;45.294;11.816;2023-05-01T14:51:21;2.80;;;1.40;;
68938;SDS011;59064;45.294;11.816;2023-05-01T14:53:46;3.20;;;1.60;;
68938;SDS011;59064;45.294;11.816;2023-05-01T14:56:12;2.80;;;1.40;;
68938;SDS011;59064;45.294;11.816;2023-05-01T14:58:38;4.30;;;2.20;;
68938;SDS011;59064;45.294;11.816;2023-05-01T15:01:04;4.80;;;1.90;;
68938;SDS011;59064;45.294;11.816;2023-05-01T15:03:30;3.80;;;1.80;;
68938;SDS011;59064;45.294;11.816;2023-05-01T15:05:56;4.20;;;1.70;;
68938;SDS011;59064;45.294;11.816;2023-05-01T15:08:23;2.80;;;1.40;;
68938;SDS011;59064;45.294;11.816;2023-05-01T15:10:48;3.80;;;1.60;;
68938;SDS011;59064;45.294;11.816;2023-05-01T15:13:17;2.00;;;1.00;;
68938;SDS011;59064;45.294;11.816;2023-05-01T15:15:43;3.50;;;1.40;;
68938;SDS011;59064;45.294;11.816;2023-05-01T15:18:09;4.20;;;1.60;;
68938;SDS011;59064;45.294;11.816;2023-05-01T15:20:35;3.60;;;1.60;;